CheckWX is a tool to help pilots better visualize weather data.  It is not intended as a substitute for an official pre-flight weather briefing.

17:18:16 UTC

KMIB TAF
Minot AFB Airport
Minot, North Dakota, USA
TAF AMD KMIB 180920Z 1809/1915 VRB06KT 9999 SCT100 QNH2988INS BECMG 1823/1824 VRB06KT 9999 SCT030 BKN040 QNH2985INS BECMG 1911/1912 15012KT 4800 -RA BKN020 QNH2983INS TX23/1821Z TN05/1809Z

Jun-18@
09:00 UTC

Jun-18 @ 09:00 UTC

Jun-18@
23:00 UTC

Jun-18 @ 23:00 UTC

TAF AMD KMIB 180920Z 1809/1915 VRB06KT 9999 SCT100 QNH2988INS
Wind
  • Variable at 6 KTS
Cloud Levels
  • Scattered at 10,000' AGL

Jun-18@
23:00 UTC

Jun-18 @ 23:00 UTC

Jun-19@
11:00 UTC

Jun-19 @ 11:00 UTC

BECMG 1823/1824 VRB06KT 9999 SCT030 BKN040 QNH2985INS

Becoming

Becoming Conditions expected by Wed, Jun 19, 2019 @ 00:00 UTC

Wind
  • Variable at 6 KTS
Cloud Levels
  • Scattered at 3,000' AGL
  • Broken at 4,000' AGL

Jun-19@
11:00 UTC

Jun-19 @ 11:00 UTC

Jun-19@
15:00 UTC

Jun-19 @ 15:00 UTC

BECMG 1911/1912 15012KT 4800 -RA BKN020 QNH2983INS TX23/1821Z TN05/1809Z

Becoming

Becoming Conditions expected by Wed, Jun 19, 2019 @ 12:00 UTC

Wind
  • 150° at 12 KTS
Conditions
Light Rain
Cloud Levels
  • Broken at 2,000' AGL